Tiempo atmosférico en la estación meteorológica de A Lama, Pontevedra (395 m.)



Fecha
DESCASC
Temp. máxima en grados centígrados (hora)
DESCASC
Temp. mínima en grados centígrados (hora)
DESCASC
Temp. media en grados centígrados
DESCASC
Racha de viento máxima en m/sg (hora)
DESCASC
Velocidad máxima media en intervalos de 10 minutos(hora)
DESCASC
Precipitaciones diarias en mm
DESCASC
Precipitaciones de 00:00 a 06:00 en mm
DESCASC
Precipitaciones de 06:00 a 12:00 en mm
DESCASC
Precipitaciones de 12:00 a 18:00 en mm
DESCASC
Precipitaciones de 18:00 a 24:00 en mm
DESCASC
29-10-2020 16.5 (15:50) 6.2 (23:30) 11.3 6.11 (15:30) 2.78 (14:30) 0 0 0 0 0
28-10-2020 14.8 (15:20) 9.1 (06:30) 12 8.61 (02:30) 3.61 (02:40) 1 0.4 0 0.6 0
27-10-2020 13.7 (19:50) 9.4 (00:00) 11.5 9.44 (10:50) 4.17 (13:00) 27.8 0.8 2.8 19 5.2
26-10-2020 12.4 (16:10) 3.4 (00:00) 7.9 6.94 (16:50) 3.33 (01:00) 8 5 1.8 0.6 0.6
25-10-2020 14.1 (02:50) 6.2 (00:00) 10.2 16.11 (01:50) 6.67 (00:30) 76.8 53.2 6.4 4.6 12.6
24-10-2020 14.1 (23:10) 11.3 (00:00) 12.7 14.17 (20:30) 6.39 (21:30) 13.2 0 1.4 2.6 9.2
23-10-2020 15.4 (15:50) 10.1 (00:00) 12.8 7.22 (17:40) 3.89 (16:00) 5.8 4.4 1.2 0.2 0
22-10-2020 14.2 (17:20) 9.7 (00:00) 11.9 7.22 (17:00) 3.33 (16:10) 10 3 0 3.8 3.2
21-10-2020 16 (16:40) 11.1 (00:00) 13.6 10.56 (01:50) 3.89 (06:00) 15.2 8.6 6.2 0 0.4
20-10-2020 16.4 (13:30) 12 (00:00) 14.2 8.89 (13:40) 4.17 (13:40) 8.6 0.6 0 1 7
19-10-2020 18.7 (01:00) 11.2 (00:00) 15 13.33 (17:10) 6.67 (17:10) 15 0 0 12 3
18-10-2020 21.8 (16:20) 9.1 (00:00) 15.4 8.06 (23:20) 3.06 (23:30) 0 0 0 0 0
17-10-2020 17 (17:40) 4.6 (00:00) 10.8 5.83 (18:00) 3.06 (18:00) 0.4 0 0.4 0 0
16-10-2020 16.8 (15:10) 4.8 (00:00) 10.8 8.89 (05:10) 4.44 (07:10) 0 0 0 0 0
15-10-2020 15.8 (17:20) 4.5 (00:00) 10.2 6.67 (13:50) 3.89 (14:00) 0 0 0 0 0
14-10-2020 14 (16:40) 5.3 (00:00) 9.7 6.11 (13:20) 3.61 (14:40) 0.8 0 0 0.8 0
13-10-2020 14.9 (14:20) 9.3 (00:00) 12.1 7.5 (18:00) 3.06 (18:30) 1.4 1 0.4 0 0
12-10-2020 17.4 (14:50) 9.9 (00:00) 13.6 11.67 (06:20) 5.83 (06:20) 0 0 0 0 0
11-10-2020 17.1 (16:00) 10.1 (00:00) 13.6 12.78 (04:30) 4.72 (15:10) 0 0 0 0 0
10-10-2020 18.3 (17:20) 11.6 (00:00) 14.9 13.61 (06:20) 6.67 (06:20) 0 0 0 0 0
09-10-2020 21.3 (16:00) 7.9 (00:00) 14.6 6.39 (17:50) 3.89 (17:30) 0 0 0 0 0
08-10-2020 22.1 (16:40) 10.3 (00:00) 16.2 6.11 (01:10) 3.33 (18:10) 0 0 0 0 0
07-10-2020 21.1 (16:40) 13 (00:00) 17.1 6.39 (16:50) 3.89 (17:00) 5.4 4.4 1 0 0
06-10-2020 16.6 (17:30) 14.4 (00:00) 15.5 7.22 (11:40) 3.61 (11:40) 14.2 4.4 6.2 3 0.6
05-10-2020 14.4 (23:59) 10.5 (00:00) 12.4 6.11 (17:30) 2.78 (16:40) 7.4 0 0.6 2.2 4.6
04-10-2020 14.8 (15:50) 10.5 (00:00) 12.7 12.22 (12:50) 6.94 (14:20) 7.6 5.4 0.6 1.6 0
03-10-2020 14.1 (17:20) 5.5 (00:00) 9.8 8.33 (15:40) 3.89 (16:50) 6.4 2.6 0 0.4 3.4
02-10-2020 15.2 (00:30) 8.5 (00:00) 11.8 16.94 (02:20) 8.33 (02:20) 30.8 20.8 4.2 4 1.8
01-10-2020 16.4 (14:50) 11.5 (09:30) 13.9 11.94 (22:50) 5.83 (23:59) 34.6 6.6 1.2 0 26.8

Gráficas

Temp. máximas Temp. mínimas Temp. medias Precipitaciones Rachas de viento máximas Velocidades máximas media en intervalos de 10 minutos

Datos horarios

Fecha y hora oficial Temperatura (ºC) Velocidad del viento (km/h) Dirección del viento Racha (km/h) Dirección de racha Precipitación (mm) Presión (hPa) Tendencia (hPa) Humedad (%)
2020-10-30 23:00:00 14.9 4 Oeste 9 Sudoeste 0 -- -- 87
2020-10-30 22:00:00 15 3 Sur 10 Sur 0 -- -- 86
2020-10-30 21:00:00 14.9 2 Sudeste 6 Sudoeste 0 -- -- 88
2020-10-30 20:00:00 15.2 4 Sudoeste 11 Sudoeste 0 -- -- 86
2020-10-30 19:00:00 16 3 Sur 15 Sur 0 -- -- 84
2020-10-30 18:00:00 17.2 9 Sudoeste 15 Sudoeste 0 -- -- 80
2020-10-30 17:00:00 18.7 6 Sudoeste 18 Sudeste 0 -- -- 75
2020-10-30 16:00:00 19 8 Sur 20 Sudoeste 0 -- -- 72
2020-10-30 15:00:00 19.4 11 Sudoeste 24 Sudoeste 0 -- -- 72
2020-10-30 14:00:00 18.5 9 Sudoeste 26 Sudoeste 0 -- -- 72
2020-10-30 13:00:00 18.1 15 Sudoeste 27 Sudoeste 0 -- -- 73
2020-10-30 12:00:00 17 10 Sudoeste 21 Sur 0 -- -- 78
2020-10-30 11:00:00 15.5 6 Sur 15 Sur 0 -- -- 94
2020-10-30 10:00:00 11.3 2 Sur 5 Sur 0 -- -- 100
2020-10-30 09:00:00 7.7 0 Calma 6 Noroeste 0 -- -- 100
2020-10-30 08:00:00 7.7 0 Calma 7 Noroeste 0 -- -- 98
2020-10-30 07:00:00 9 0 Calma 6 Noroeste 0 -- -- 98
2020-10-30 06:00:00 9.3 2 Norte 4 Noroeste 0 -- -- 98
2020-10-30 05:00:00 9.4 2 Noroeste 6 Noroeste 0 -- -- 98
2020-10-30 04:00:00 9.1 3 Noroeste 6 Noroeste 0 -- -- 98
2020-10-30 03:00:00 9.1 0 Calma 6 Noroeste 0 -- -- 98
2020-10-30 02:00:00 8.7 0 Calma 8 Noroeste 0 -- -- 98
2020-10-30 01:00:00 8 2 Noroeste 6 Noroeste 0 -- -- 98
2020-10-30 00:00:00 6.5 3 Noroeste 6 Noroeste 0 -- -- 97
2020-10-29 23:00:00 6.6 0 Calma 5 Noroeste 0 -- -- 96
2020-10-29 22:00:00 7.1 3 Noroeste 6 Noroeste 0 -- -- 95
2020-10-29 21:00:00 8 4 Noroeste 6 Noroeste 0 -- -- 94
2020-10-29 20:00:00 9.7 0 Calma 4 Sudeste 0 -- -- 91
2020-10-29 19:00:00 11.9 0 Calma 5 Sur 0 -- -- 87
2020-10-29 18:00:00 14.3 3 Sudoeste 13 Sudoeste 0 -- -- 78
2020-10-29 17:00:00 15.6 7 Sudoeste 19 Sudoeste 0 -- -- 71
2020-10-29 16:00:00 16.4 10 Sudoeste 22 Sudoeste 0 -- -- 67
2020-10-29 15:00:00 16.1 10 Sur 19 Sudoeste 0 -- -- 68
2020-10-29 14:00:00 15 7 Sudoeste 18 Sudoeste 0 -- -- 72
2020-10-29 13:00:00 14.8 6 Sudoeste 15 Sudoeste 0 -- -- 74
2020-10-29 12:00:00 14 6 Sudoeste 15 Sudoeste 0 -- -- 79
2020-10-29 11:00:00 12.1 4 Sudoeste 8 Sudoeste 0 -- -- 93
2020-10-29 10:00:00 8.7 3 Noroeste 5 Norte 0 -- -- 99
2020-10-29 09:00:00 6.5 3 Noroeste 7 Norte 0 -- -- 98
2020-10-29 08:00:00 7 3 Norte 10 Nordeste 0 -- -- 98
2020-10-29 07:00:00 8.3 2 Nordeste 6 Nordeste 0 -- -- 98
2020-10-29 06:00:00 9.5 2 Noroeste 6 Norte 0 -- -- 98
2020-10-29 05:00:00 10.2 0 Calma 7 Nordeste 0 -- -- 98
2020-10-29 04:00:00 10.5 0 Calma 5 Noroeste 0 -- -- 98
2020-10-29 03:00:00 10.5 3 Este 4 Sudeste 0 -- -- 98
2020-10-29 02:00:00 10.6 2 Nordeste 8 Noroeste 0 -- -- 98
2020-10-29 01:00:00 10.5 2 Norte 4 Noroeste 0 -- -- 98
2020-10-29 00:00:00 10.6 0 Calma 4 Noroeste 0 -- -- 97
2020-10-28 23:00:00 10.8 3 Norte 4 Norte 0 -- -- 97
2020-10-28 22:00:00 11.2 0 Calma 3 Noroeste 0 -- -- 96
2020-10-28 21:00:00 11.3 0 Calma 5 Noroeste 0 -- -- 95
2020-10-28 20:00:00 11.6 0 Calma 3 Sur 0 -- -- 92
2020-10-28 19:00:00 12.4 0 Calma 8 Oeste 0 -- -- 87
2020-10-28 18:00:00 13.2 3 Sudoeste 15 Sudoeste 0 -- -- 83
2020-10-28 17:00:00 14.3 6 Sudoeste 14 Sudoeste 0 -- -- 79
2020-10-28 16:00:00 14.4 6 Sudoeste 17 Sur 0 -- -- 81
2020-10-28 15:00:00 14.1 8 Sur 15 Sudoeste 0 -- -- 90
2020-10-28 14:00:00 13 10 Oeste 18 Sudoeste 0.6 -- -- 94
2020-10-28 13:00:00 13.4 6 Sudoeste 17 Sudoeste 0 -- -- 93
2020-10-28 12:00:00 13.1 7 Sudoeste 15 Oeste 0 -- -- 97
2020-10-28 11:00:00 12.6 6 Sudoeste 13 Sudoeste 0 -- -- 100
2020-10-28 10:00:00 10.7 0 Calma 6 Noroeste 0 -- -- 100
2020-10-28 09:00:00 9.7 0 Calma 8 Norte 0 -- -- 100
2020-10-28 08:00:00 9.3 0 Calma 3 Este 0 -- -- 100
2020-10-28 07:00:00 9.2 2 Norte 5 Noroeste 0 -- -- 100
2020-10-28 06:00:00 9.4 2 Noroeste 5 Nordeste 0 -- -- 99
2020-10-28 05:00:00 9.5 0 Calma 4 Norte 0 -- -- 99
2020-10-28 04:00:00 10.7 2 Nordeste 4 Norte 0 -- -- 99
2020-10-28 03:00:00 11.1 4 Sudeste 31 Oeste 0.4 -- -- 99
2020-10-28 02:00:00 12.2 2 Sudoeste 6 Sur 0 -- -- 99
2020-10-28 01:00:00 12.3 0 Calma 8 Sudoeste 0 -- -- 99
2020-10-28 00:00:00 12.3 0 Calma 8 Sudoeste 0 -- -- 99
2020-10-27 23:00:00 12.3 3 Sur 9 Sudoeste 0 -- -- 99
2020-10-27 22:00:00 12.3 4 Sudoeste 16 Sudoeste 0.6 -- -- 99
2020-10-27 21:00:00 12.6 7 Oeste 19 Sudoeste 0.6 -- -- 99
2020-10-27 20:00:00 13.6 13 Sudoeste 31 Sudoeste 1.8 -- -- 99
2020-10-27 19:00:00 13.2 8 Sur 27 Sudoeste 2.2 -- -- 99
2020-10-27 18:00:00 13.1 12 Sur 32 Sudoeste 5.4 -- -- 99
2020-10-27 17:00:00 13.1 13 Sudoeste 30 Sudoeste 3.6 -- -- 99
2020-10-27 16:00:00 13 12 Sur 29 Sur 2.6 -- -- 98
2020-10-27 15:00:00 12.7 14 Sur 28 Oeste 2.8 -- -- 98
2020-10-27 14:00:00 12.4 12 Sur 34 Sudoeste 3.4 -- -- 99
2020-10-27 13:00:00 12 15 Sur 28 Sur 1.2 -- -- 99
2020-10-27 12:00:00 11.5 11 Sur 30 Sur 0.8 -- -- 99
2020-10-27 11:00:00 11.2 11 Sur 34 Sudoeste 0.6 -- -- 99
2020-10-27 10:00:00 11 12 Sur 30 Sur 0 -- -- 99
2020-10-27 09:00:00 10.5 12 Sur 30 Sudoeste 0.8 -- -- 99
2020-10-27 08:00:00 10.2 11 Sur 27 Sur 0.4 -- -- 98
2020-10-27 07:00:00 10 9 Sur 28 Sudoeste 0.2 -- -- 98
2020-10-27 06:00:00 9.8 10 Sur 24 Sudoeste 0 -- -- 98
2020-10-27 05:00:00 9.6 6 Sur 17 Sudoeste 0 -- -- 98
2020-10-27 04:00:00 9.7 8 Sur 27 Sudoeste 0 -- -- 98
2020-10-27 03:00:00 9.6 6 Sudoeste 17 Sudoeste 0.6 -- -- 98
2020-10-27 02:00:00 9.6 7 Sur 17 Sudoeste 0 -- -- 97
2020-10-27 01:00:00 9.5 4 Oeste 10 Oeste 0.2 -- -- 97
2020-10-27 00:00:00 9.4 4 Oeste 13 Oeste 0.4 -- -- 97
2020-10-26 23:00:00 9.4 3 Oeste 9 Sudoeste 0 -- -- 96
2020-10-26 22:00:00 9.4 3 Sudoeste 11 Sudoeste 0 -- -- 95
2020-10-26 21:00:00 9.5 2 Sur 5 Sudoeste 0 -- -- 95
2020-10-26 20:00:00 9.5 5 Sudoeste 13 Sudoeste 0.2 -- -- 94
2020-10-26 19:00:00 9.9 3 Sudoeste 9 Sudoeste 0 -- -- 90
2020-10-26 18:00:00 11 4 Sudoeste 22 Sudoeste 0 -- -- 88
2020-10-26 17:00:00 11.8 9 Oeste 25 Sudoeste 0 -- -- 85
2020-10-26 16:00:00 12.3 12 Sudoeste 23 Sudoeste 0 -- -- 88
2020-10-26 15:00:00 11.8 8 Oeste 18 Sudoeste 0.2 -- -- 90
2020-10-26 14:00:00 10.9 9 Sudoeste 21 Oeste 0.4 -- -- 92
2020-10-26 13:00:00 11.5 7 Sudoeste 14 Sudoeste 0 -- -- 98
2020-10-26 12:00:00 9.8 5 Sudoeste 11 Sudoeste 0.8 -- -- 99
2020-10-26 11:00:00 8.5 5 Sudoeste 8 Sudoeste 0.4 -- -- 100
2020-10-26 10:00:00 6.7 3 Noroeste 5 Noroeste 0 -- -- 100
2020-10-26 09:00:00 5.1 0 Calma 4 Noroeste 0.6 -- -- 100
2020-10-26 08:00:00 3.8 0 Calma 7 Noroeste 0 -- -- 99
2020-10-26 07:00:00 3.5 3 Noroeste 5 Noroeste 0 -- -- 99
2020-10-26 06:00:00 3.5 0 Calma 4 Noroeste 0 -- -- 99
2020-10-26 05:00:00 3.5 3 Noroeste 6 Noroeste 0 -- -- 98
2020-10-26 04:00:00 3.9 3 Norte 7 Norte 0 -- -- 98
2020-10-26 03:00:00 4.5 2 Este 6 Nordeste 0 -- -- 97
2020-10-26 02:00:00 5.4 3 Norte 22 Norte 2.2 -- -- 97
2020-10-26 01:00:00 6.9 12 Oeste 23 Oeste 2.8 -- -- 98
2020-10-26 00:00:00 6.3 4 Sudoeste 10 Sur 4.6 -- -- 98
2020-10-25 23:00:00 6.4 0 Calma 5 Este 0.2 -- -- 97
2020-10-25 22:00:00 6.6 2 Norte 14 Sur 2.8 -- -- 96
2020-10-25 21:00:00 7.1 5 Sudoeste 16 Noroeste 4.4 -- -- 95
2020-10-25 20:00:00 7.7 5 Sur 14 Sudoeste 0.6 -- -- 93
2020-10-25 19:00:00 8.6 8 Sudoeste 23 Sudoeste 0 -- -- 92
2020-10-25 18:00:00 9.1 3 Sudoeste 10 Oeste 0 -- -- 92
2020-10-25 17:00:00 9 2 Sudeste 15 Oeste 0.6 -- -- 94
2020-10-25 16:00:00 7.6 7 Noroeste 45 Noroeste 2.2 -- -- 91
2020-10-25 15:00:00 11.1 12 Sudoeste 26 Oeste 0.4 -- -- 94
2020-10-25 14:00:00 9.9 4 Sur 17 Oeste 0 -- -- 94
2020-10-25 13:00:00 9.5 12 Sudoeste 44 Noroeste 1.4 -- -- 95
2020-10-25 12:00:00 10.7 10 Sudoeste 21 Sur 1.4 -- -- 97
2020-10-25 11:00:00 10.6 3 Sudoeste 34 Noroeste 0 -- -- 98
2020-10-25 10:00:00 10.5 21 Noroeste 40 Oeste 2.4 -- -- 97
2020-10-25 09:00:00 11.1 7 Oeste 25 Oeste 1.2 -- -- 98
2020-10-25 08:00:00 11.7 9 Oeste 24 Sudoeste 1 -- -- 98
2020-10-25 07:00:00 11.7 5 Sudoeste 17 Oeste 0.4 -- -- 98
2020-10-25 06:00:00 11.4 6 Oeste 29 Oeste 2 -- -- 98
2020-10-25 05:00:00 11.7 12 Oeste 31 Oeste 4.8 -- -- 98
2020-10-25 04:00:00 12 12 Oeste 40 Oeste 6.4 -- -- 98
2020-10-25 03:00:00 13.3 18 Oeste 44 Oeste 16.8 -- -- 97
2020-10-25 02:00:00 14.1 21 Sudoeste 49 Sur 8.6 -- -- 97
2020-10-25 01:00:00 13.6 21 Sudoeste 48 Sudoeste 9 -- -- 96
2020-10-25 00:00:00 13.9 18 Sudoeste 44 Sudoeste 7.2 -- -- 96
2020-10-24 23:00:00 14 21 Sudoeste 46 Sudoeste 0 -- -- 95
2020-10-24 22:00:00 13.8 21 Sudoeste 47 Sudoeste 0.2 -- -- 96
2020-10-24 21:00:00 13.9 20 Sudoeste 51 Sudoeste 0.4 -- -- 97
2020-10-24 20:00:00 13.6 19 Sudoeste 46 Sudoeste 1.2 -- -- 97
2020-10-24 19:00:00 13.6 19 Sudoeste 44 Sudoeste 0.2 -- -- 96
2020-10-24 18:00:00 14 18 Sudoeste 37 Sudoeste 0.2 -- -- 95
2020-10-24 17:00:00 14 18 Sudoeste 45 Sudoeste 0.2 -- -- 96
2020-10-24 16:00:00 13.6 16 Sudoeste 41 Sudoeste 0.4 -- -- 97
2020-10-24 15:00:00 13.4 16 Sur 36 Sudoeste 0.8 -- -- 97
2020-10-24 14:00:00 13.2 12 Sudoeste 33 Sudoeste 1 -- -- 96
2020-10-24 13:00:00 13.5 14 Sur 34 Sudoeste 0 -- -- 96
2020-10-24 12:00:00 12.7 14 Sur 33 Sudoeste 0 -- -- 97
2020-10-24 11:00:00 12.3 13 Sur 31 Sur 0 -- -- 98
2020-10-24 10:00:00 11.8 10 Sur 30 Sur 0.2 -- -- 98
2020-10-24 09:00:00 11.6 9 Sur 24 Sur 0 -- -- 97
2020-10-24 08:00:00 11.4 11 Sur 29 Sur 0.8 -- -- 96
2020-10-24 07:00:00 11.5 8 Sur 26 Sur 0.4 -- -- 94
2020-10-24 06:00:00 11.8 10 Sur 33 Sudoeste 0 -- -- 92
2020-10-24 05:00:00 11.7 8 Sur 23 Sur 0 -- -- 92
2020-10-24 04:00:00 11.3 6 Sur 19 Sur 0 -- -- 93
2020-10-24 03:00:00 11.5 7 Sudoeste 21 Sudoeste 0 -- -- 91
2020-10-24 02:00:00 11.8 8 Sur 21 Sur 0 -- -- 88
2020-10-24 01:00:00 11.7 7 Sur 21 Sur 0 -- -- 88
2020-10-24 00:00:00 11.6 6 Sur 18 Sudoeste 0 -- -- 89
2020-10-23 23:00:00 11.5 6 Sudoeste 15 Sur 0 -- -- 89
2020-10-23 22:00:00 11.2 3 Sudoeste 17 Sudoeste 0 -- -- 90
2020-10-23 21:00:00 11.5 5 Sur 13 Sur 0 -- -- 88
2020-10-23 20:00:00 12.1 0 Calma 10 Oeste 0 -- -- 85
2020-10-23 19:00:00 12.8 5 Oeste 16 Sudoeste 0 -- -- 81
2020-10-23 18:00:00 13.2 8 Oeste 26 Oeste 0 -- -- 75
2020-10-23 17:00:00 14.2 12 Oeste 25 Oeste 0 -- -- 69
2020-10-23 16:00:00 14.8 14 Sudoeste 24 Sudoeste 0.2 -- -- 67
2020-10-23 15:00:00 14.7 8 Sudoeste 19 Sudoeste 0 -- -- 73
2020-10-23 14:00:00 13.5 8 Sudoeste 18 Oeste 0 -- -- 86
2020-10-23 13:00:00 12.7 6 Sudoeste 14 Oeste 0 -- -- 92
2020-10-23 12:00:00 12.1 6 Sudoeste 11 Sudoeste 0 -- -- 96
2020-10-23 11:00:00 11 3 Sur 9 Sudoeste 0 -- -- 99
2020-10-23 10:00:00 10.4 2 Sur 12 Sudoeste 0 -- -- 99
2020-10-23 09:00:00 10.3 5 Oeste 14 Noroeste 0.8 -- -- 99
2020-10-23 08:00:00 10.3 3 Sudoeste 8 Sudoeste 0 -- -- 99
2020-10-23 07:00:00 10.4 4 Oeste 10 Oeste 0.4 -- -- 99
2020-10-23 06:00:00 10.2 4 Sur 6 Sur 0 -- -- 98
2020-10-23 05:00:00 10.2 2 Oeste 5 Oeste 0.6 -- -- 98
2020-10-23 04:00:00 10.2 0 Calma 5 Sudoeste 0 -- -- 98
2020-10-23 03:00:00 10.6 2 Sur 6 Sudoeste 0.2 -- -- 97
2020-10-23 02:00:00 10.8 4 Sur 11 Sudoeste 3 -- -- 97
2020-10-23 01:00:00 10.8 4 Sur 14 Sudoeste 0.6 -- -- 97
2020-10-23 00:00:00 10.8 0 Calma 6 Sudoeste 0 -- -- 96
2020-10-22 23:00:00 10.7 0 Calma 8 Sudoeste 0.4 -- -- 96
2020-10-22 22:00:00 10.7 2 Sur 8 Sudoeste 0.6 -- -- 95
2020-10-22 21:00:00 11.3 2 Sur 6 Sur 1 -- -- 94
2020-10-22 20:00:00 11.8 4 Noroeste 8 Oeste 1.2 -- -- 92
2020-10-22 19:00:00 12.6 0 Calma 21 Oeste 0 -- -- 86
2020-10-22 18:00:00 13.4 10 Oeste 23 Oeste 0 -- -- 88
2020-10-22 17:00:00 13.3 12 Oeste 26 Oeste 2 -- -- 91
2020-10-22 16:00:00 12.8 11 Noroeste 20 Oeste 1 -- -- 87
2020-10-22 15:00:00 13.4 6 Sur 16 Sudoeste 0.2 -- -- 88
2020-10-22 14:00:00 12.6 9 Sur 19 Sudoeste 0.6 -- -- 89
2020-10-22 13:00:00 12.9 6 Sur 23 Sur 0 -- -- 87
2020-10-22 12:00:00 13.1 6 Sur 17 Sudoeste 0 -- -- 91
2020-10-22 11:00:00 12.1 5 Sur 14 Sur 0 -- -- 94
2020-10-22 10:00:00 10.4 2 Sudeste 8 Sudoeste 0 -- -- 96
2020-10-22 09:00:00 9.8 0 Calma 9 Sudoeste 0 -- -- 96
2020-10-22 08:00:00 10.3 2 Sur 11 Sur 0 -- -- 96
2020-10-22 07:00:00 10.3 0 Calma 6 Sudeste 0 -- -- 96
2020-10-22 06:00:00 10.9 3 Sur 16 Sur 0.2 -- -- 95
2020-10-22 05:00:00 10.9 6 Sur 16 Sur 0.6 -- -- 95
2020-10-22 04:00:00 10.8 5 Sur 12 Sur 0.4 -- -- 95
2020-10-22 03:00:00 10.9 4 Sur 18 Sur 1.8 -- -- 94
2020-10-22 02:00:00 11 5 Sur 12 Sudeste 0 -- -- 93
2020-10-22 01:00:00 11 4 Sur 15 Sur 0 -- -- 93
2020-10-22 00:00:00 11.1 7 Sur 19 Sur 0 -- -- 93
2020-10-21 23:00:00 11.2 9 Sur 22 Sudoeste 0 -- -- 93
2020-10-21 22:00:00 11.1 5 Sur 12 Sur 0 -- -- 94
2020-10-21 21:00:00 11.6 5 Sur 23 Sur 0 -- -- 93
2020-10-21 20:00:00 12.6 6 Sur 13 Sur 0 -- -- 92
2020-10-21 19:00:00 13 8 Sudoeste 21 Oeste 0.4 -- -- 90
2020-10-21 18:00:00 14 10 Oeste 32 Sudoeste 0 -- -- 85
2020-10-21 17:00:00 15.6 14 Sudoeste 35 Oeste 0 -- -- 78
2020-10-21 16:00:00 14.4 8 Sur 31 Sudoeste 0 -- -- 88
2020-10-21 15:00:00 13.3 12 Sur 24 Sudoeste 0 -- -- 90
2020-10-21 14:00:00 13.1 7 Sur 28 Sur 0 -- -- 91
2020-10-21 13:00:00 12.4 10 Sur 22 Sur 0 -- -- 96
2020-10-21 12:00:00 11.7 8 Sur 19 Sudeste 3.2 -- -- 97
2020-10-21 11:00:00 12 6 Sur 15 Sudeste 0.4 -- -- 97
2020-10-21 10:00:00 11.6 3 Sur 24 Sur 0 -- -- 97
2020-10-21 09:00:00 11.9 8 Sur 19 Sudoeste 2.2 -- -- 97
2020-10-21 08:00:00 12 7 Sudoeste 24 Sudoeste 0.2 -- -- 97
2020-10-21 07:00:00 12.1 8 Sudoeste 28 Sudoeste 0.2 -- -- 98
2020-10-21 06:00:00 12.3 14 Sudoeste 32 Sudoeste 0.4 -- -- 98
2020-10-21 05:00:00 12.4 10 Sudoeste 27 Oeste 2 -- -- 98
2020-10-21 04:00:00 12.6 8 Sur 24 Sudoeste 0.4 -- -- 98
2020-10-21 03:00:00 12.6 10 Sur 23 Sudoeste 1.8 -- -- 98
2020-10-21 02:00:00 12.6 11 Sur 38 Sudoeste 3 -- -- 98
2020-10-21 01:00:00 12.3 8 Sur 23 Sur 1 -- -- 98
2020-10-21 00:00:00 12.1 4 Sudoeste 9 Sudoeste 0.6 -- -- 97
2020-10-20 23:00:00 12 3 Sur 8 Sudoeste 3.2 -- -- 97
2020-10-20 22:00:00 12.1 2 Oeste 6 Oeste 1.6 -- -- 97
2020-10-20 21:00:00 12.2 3 Sur 5 Sur 1.2 -- -- 96
2020-10-20 20:00:00 12.6 2 Sudeste 4 Noroeste 0 -- -- 96
2020-10-20 19:00:00 12.6 4 Sudeste 10 Norte 0.4 -- -- 94
2020-10-20 18:00:00 13.1 3 Sudeste 7 Este 0.6 -- -- 92
2020-10-20 17:00:00 13.8 0 Calma 12 Sur 0.4 -- -- 87
2020-10-20 16:00:00 14.8 7 Sur 23 Sur 0 -- -- 80
2020-10-20 15:00:00 15.3 12 Sur 23 Sur 0 -- -- 82
2020-10-20 14:00:00 16 9 Sur 32 Sur 0 -- -- 79
2020-10-20 13:00:00 15.8 12 Sur 27 Sur 0 -- -- 81
2020-10-20 12:00:00 15.3 10 Sur 28 Sur 0 -- -- 83
2020-10-20 11:00:00 14.3 8 Sur 19 Sudeste 0 -- -- 87
2020-10-20 10:00:00 14 9 Sur 26 Sudeste 0 -- -- 89
2020-10-20 09:00:00 13.5 5 Sur 17 Sudeste 0 -- -- 93
2020-10-20 08:00:00 13.7 8 Sur 22 Sudeste 0 -- -- 95
2020-10-20 07:00:00 13.6 9 Sur 16 Sur 0 -- -- 96
2020-10-20 06:00:00 13.7 6 Sur 22 Sur 0 -- -- 96
2020-10-20 05:00:00 14 6 Sur 17 Sudoeste 0 -- -- 97
2020-10-20 04:00:00 14.1 7 Sur 22 Sudoeste 0 -- -- 97
2020-10-20 03:00:00 14.3 8 Sur 21 Sudoeste 0.4 -- -- 97
2020-10-20 02:00:00 14.4 7 Sur 18 Sudoeste 0 -- -- 97
2020-10-20 01:00:00 14.5 7 Sur 23 Sudoeste 0.2 -- -- 97
2020-10-20 00:00:00 14.5 9 Sur 24 Sur 2.2 -- -- 97
2020-10-19 23:00:00 14.5 10 Sur 21 Sur 0.2 -- -- 97
2020-10-19 22:00:00 14.6 8 Sudoeste 21 Sur 0 -- -- 96
2020-10-19 21:00:00 14.7 10 Sur 25 Sudoeste 0 -- -- 96
2020-10-19 20:00:00 14.9 11 Sudoeste 28 Sur 0.4 -- -- 95
2020-10-19 19:00:00 14.9 13 Sur 41 Sudoeste 0.2 -- -- 95
2020-10-19 18:00:00 14.4 14 Sur 48 Sudeste 0.2 -- -- 93
2020-10-19 17:00:00 14.2 17 Sur 41 Sur 4.2 -- -- 94
2020-10-19 16:00:00 14 5 Sur 46 Sur 5 -- -- 91
2020-10-19 15:00:00 14.1 15 Sur 43 Sudeste 2.6 -- -- 84
2020-10-19 14:00:00 17.2 16 Sur 47 Sur 0 -- -- 59
2020-10-19 13:00:00 18.4 18 Sur 43 Sur 0 -- -- 53
2020-10-19 12:00:00 18.2 10 Sur 35 Sur 0 -- -- 51
2020-10-19 11:00:00 17.6 16 Sur 34 Sur 0 -- -- 51
2020-10-19 10:00:00 15.3 5 Sur 15 Sur 0 -- -- 56
2020-10-19 09:00:00 14.7 4 Sur 16 Sudeste 0 -- -- 54
2020-10-19 08:00:00 14 8 Sudeste 15 Sudeste 0 -- -- 58
2020-10-19 07:00:00 12.8 0 Calma 6 Sur 0 -- -- 61
2020-10-19 06:00:00 16.4 2 Sur 22 Este 0 -- -- 45
2020-10-19 05:00:00 16.4 9 Este 24 Sudeste 0 -- -- 43
2020-10-19 04:00:00 18 12 Este 30 Sudeste 0 -- -- 39
2020-10-19 03:00:00 18.6 14 Sudeste 31 Sudeste 0 -- -- 36
2020-10-19 02:00:00 18.4 15 Sudeste 32 Sudeste 0 -- -- 37
2020-10-19 01:00:00 18.7 13 Sudeste 28 Este 0 -- -- 38
2020-10-19 00:00:00 18 8 Sudeste 29 Sudeste 0 -- -- 46
2020-10-18 23:00:00 17.1 8 Sudeste 25 Sudeste 0 -- -- 52
2020-10-18 22:00:00 13.2 5 Noroeste 14 Nordeste 0 -- -- 82
2020-10-18 21:00:00 14.3 3 Nordeste 9 Nordeste 0 -- -- 79
2020-10-18 20:00:00 16.1 3 Norte 6 Noroeste 0 -- -- 76
2020-10-18 19:00:00 18.9 3 Sudeste 11 Sudoeste 0 -- -- 65
2020-10-18 18:00:00 21 5 Sudoeste 15 Sudoeste 0 -- -- 53
2020-10-18 17:00:00 21 6 Sur 21 Oeste 0 -- -- 55
2020-10-18 16:00:00 21.3 9 Sur 23 Sur 0 -- -- 53
2020-10-18 15:00:00 20.3 7 Sudoeste 23 Sudoeste 0 -- -- 57
2020-10-18 14:00:00 19 9 Sudoeste 21 Sudoeste 0 -- -- 62
2020-10-18 13:00:00 18.2 10 Sudoeste 23 Sudoeste 0 -- -- 67
2020-10-18 12:00:00 17.3 8 Sur 18 Sudoeste 0 -- -- 71
2020-10-18 11:00:00 16.2 5 Sur 15 Sudeste 0 -- -- 77
2020-10-18 10:00:00 15.5 5 Sudeste 15 Sur 0 -- -- 85
2020-10-18 09:00:00 12.4 4 Sur 15 Sur 0 -- -- 98
2020-10-18 08:00:00 10.4 4 Noroeste 8 Noroeste 0 -- -- 98
2020-10-18 07:00:00 10 2 Noroeste 6 Noroeste 0 -- -- 97
2020-10-18 06:00:00 10.1 6 Noroeste 8 Noroeste 0 -- -- 98
2020-10-18 05:00:00 9.5 3 Noroeste 6 Noroeste 0 -- -- 97
2020-10-18 04:00:00 9.4 0 Calma 6 Noroeste 0 -- -- 96
2020-10-18 03:00:00 10.1 3 Noroeste 8 Nordeste 0 -- -- 94
2020-10-18 02:00:00 11.7 2 Norte 8 Nordeste 0 -- -- 94
2020-10-18 01:00:00 12.9 0 Calma 4 Sur 0 -- -- 93
2020-10-18 00:00:00 12.8 0 Calma 5 Nordeste 0 -- -- 93
2020-10-17 23:00:00 12.5 0 Calma 4 Este 0 -- -- 92
2020-10-17 22:00:00 13 0 Calma 5 Sur 0 -- -- 88
2020-10-17 21:00:00 13.8 3 Sur 6 Sur 0 -- -- 87
2020-10-17 20:00:00 14 4 Sur 8 Sur 0 -- -- 85
2020-10-17 19:00:00 14.9 6 Sur 14 Sudoeste 0 -- -- 80
2020-10-17 18:00:00 16.5 11 Sudoeste 21 Sur 0 -- -- 73
2020-10-17 17:00:00 16.4 8 Sur 18 Sur 0 -- -- 77
2020-10-17 16:00:00 14.8 8 Sur 17 Sudoeste 0 -- -- 79
2020-10-17 15:00:00 14.7 7 Sur 16 Sudoeste 0 -- -- 81
2020-10-17 14:00:00 13.2 4 Sudoeste 10 Sudoeste 0 -- -- 84
2020-10-17 13:00:00 12.8 2 Sudoeste 17 Sur 0 -- -- 85
2020-10-17 12:00:00 11.9 2 Sur 13 Sudoeste 0 -- -- 88
2020-10-17 11:00:00 11.1 3 Sur 16 Sudeste 0 -- -- 89
2020-10-17 10:00:00 9.6 3 Sudeste 13 Sur 0.4 -- -- 94
2020-10-17 09:00:00 7.6 2 Oeste 5 Noroeste 0 -- -- 97
2020-10-17 08:00:00 6.8 0 Calma 6 Noroeste 0 -- -- 97
2020-10-17 07:00:00 6 2 Noroeste 5 Noroeste 0 -- -- 97
2020-10-17 06:00:00 5.5 5 Noroeste 7 Noroeste 0 -- -- 96
2020-10-17 05:00:00 4.6 4 Noroeste 6 Noroeste 0 -- -- 96
2020-10-17 04:00:00 4.8 3 Noroeste 9 Norte 0 -- -- 96
2020-10-17 03:00:00 5 3 Noroeste 8 Noroeste 0 -- -- 96
2020-10-17 02:00:00 5.7 0 Calma 8 Noroeste 0 -- -- 95
2020-10-17 01:00:00 6.2 2 Noroeste 5 Noroeste 0 -- -- 94
2020-10-17 00:00:00 5.9 2 Noroeste 5 Noroeste 0 -- -- 94
2020-10-16 23:00:00 6.5 0 Calma 6 Noroeste 0 -- -- 92
2020-10-16 22:00:00 7.5 0 Calma 3 Noroeste 0 -- -- 90
2020-10-16 21:00:00 8.7 3 Noroeste 4 Noroeste 0 -- -- 87
2020-10-16 20:00:00 11 0 Calma 5 Sudoeste 0 -- -- 79
2020-10-16 19:00:00 13.5 3 Oeste 10 Sudoeste 0 -- -- 65
2020-10-16 18:00:00 14.9 5 Oeste 17 Noroeste 0 -- -- 60
2020-10-16 17:00:00 16.2 8 Oeste 20 Oeste 0 -- -- 56
2020-10-16 16:00:00 16.8 9 Oeste 18 Sudoeste 0 -- -- 52
2020-10-16 15:00:00 16.6 7 Oeste 18 Sudoeste 0 -- -- 54
2020-10-16 14:00:00 15.2 10 Oeste 19 Oeste 0 -- -- 54
2020-10-16 13:00:00 14.4 8 Oeste 17 Oeste 0 -- -- 58
2020-10-16 12:00:00 12.9 8 Este 18 Este 0 -- -- 67
2020-10-16 11:00:00 10.9 9 Este 21 Este 0 -- -- 72
2020-10-16 10:00:00 6.7 5 Nordeste 21 Este 0 -- -- 84
2020-10-16 09:00:00 7.3 11 Este 24 Este 0 -- -- 81
2020-10-16 08:00:00 8.3 13 Este 27 Este 0 -- -- 79
2020-10-16 07:00:00 8.4 14 Este 28 Este 0 -- -- 83
2020-10-16 06:00:00 7.7 9 Este 32 Este 0 -- -- 84
2020-10-16 05:00:00 6.8 8 Nordeste 28 Este 0 -- -- 86
2020-10-16 04:00:00 5 4 Noroeste 14 Norte 0 -- -- 90
2020-10-16 03:00:00 5 5 Noroeste 15 Nordeste 0 -- -- 87
2020-10-16 02:00:00 6.3 7 Norte 18 Nordeste 0 -- -- 85
2020-10-16 01:00:00 7.5 4 Norte 20 Nordeste 0 -- -- 83
2020-10-16 00:00:00 8.9 10 Este 21 Este 0 -- -- 82
2020-10-15 23:00:00 9.4 10 Este 24 Este 0 -- -- 82
2020-10-15 22:00:00 9.9 10 Este 19 Nordeste 0 -- -- 80
2020-10-15 21:00:00 10.7 7 Nordeste 16 Este 0 -- -- 80
2020-10-15 20:00:00 12.3 5 Nordeste 10 Nordeste 0 -- -- 73
2020-10-15 19:00:00 14.1 4 Nordeste 16 Nordeste 0 -- -- 68
2020-10-15 18:00:00 14.9 4 Este 20 Norte 0 -- -- 66
2020-10-15 17:00:00 15.1 5 Norte 18 Norte 0 -- -- 64
2020-10-15 16:00:00 15.3 5 Norte 21 Norte 0 -- -- 63
2020-10-15 15:00:00 15.2 7 Nordeste 24 Noroeste 0 -- -- 62
2020-10-15 14:00:00 14.7 14 Noroeste 24 Noroeste 0 -- -- 66
2020-10-15 13:00:00 14 7 Norte 19 Noroeste 0 -- -- 73
2020-10-15 12:00:00 11.8 9 Noroeste 17 Norte 0 -- -- 92
2020-10-15 11:00:00 8.6 2 Norte 5 Nordeste 0 -- -- 99
2020-10-15 10:00:00 6 0 Calma 4 Noroeste 0 -- -- 98
2020-10-15 09:00:00 5.6 2 Sudeste 7 Noroeste 0 -- -- 98
2020-10-15 08:00:00 4.5 3 Norte 5 Noroeste 0 -- -- 97
2020-10-15 07:00:00 5.4 2 Noroeste 6 Nordeste 0 -- -- 96
2020-10-15 06:00:00 6.5 3 Norte 10 Nordeste 0 -- -- 95
2020-10-15 05:00:00 7.2 3 Nordeste 8 Este 0 -- -- 96
2020-10-15 04:00:00 6.4 4 Este 10 Nordeste 0 -- -- 97
2020-10-15 03:00:00 6 4 Nordeste 8 Nordeste 0 -- -- 98
2020-10-15 02:00:00 5.2 3 Norte 8 Noroeste 0 -- -- 94
2020-10-15 01:00:00 6.6 0 Calma 4 Noroeste 0 -- -- 93
2020-10-15 00:00:00 7.9 4 Este 13 Este 0 -- -- 90
2020-10-14 23:00:00 8.3 5 Nordeste 13 Este 0 -- -- 88
2020-10-14 22:00:00 8.6 2 Nordeste 16 Este 0 -- -- 86
2020-10-14 21:00:00 9 3 Este 11 Este 0 -- -- 83
2020-10-14 20:00:00 10.8 4 Norte 17 Norte 0 -- -- 74
2020-10-14 19:00:00 12.8 6 Norte 17 Norte 0 -- -- 77
2020-10-14 18:00:00 13.2 5 Norte 18 Norte 0 -- -- 82
2020-10-14 17:00:00 13.5 8 Noroeste 15 Noroeste 0 -- -- 81
2020-10-14 16:00:00 12.9 5 Noroeste 12 Oeste 0.2 -- -- 86
2020-10-14 15:00:00 11.8 6 Norte 22 Noroeste 0.6 -- -- 86
2020-10-14 14:00:00 13 12 Noroeste 22 Noroeste 0 -- -- 78
2020-10-14 13:00:00 12.7 6 Norte 16 Noroeste 0 -- -- 80
2020-10-14 12:00:00 12.1 5 Noroeste 15 Nordeste 0 -- -- 89
2020-10-14 11:00:00 9.4 0 Calma 4 Noroeste 0 -- -- 98
2020-10-14 10:00:00 6.6 0 Calma 4 Noroeste 0 -- -- 98
2020-10-14 09:00:00 5.5 0 Calma 5 Norte 0 -- -- 97
2020-10-14 08:00:00 5.4 2 Noroeste 5 Noroeste 0 -- -- 96
2020-10-14 07:00:00 6.4 0 Calma 6 Noroeste 0 -- -- 97
2020-10-14 06:00:00 6.7 0 Calma 5 Noroeste 0 -- -- 96
2020-10-14 05:00:00 7.2 0 Calma 5 Noroeste 0 -- -- 95
2020-10-14 04:00:00 8.2 0 Calma 5 Nordeste 0 -- -- 92
2020-10-14 03:00:00 9.1 0 Calma 6 Este 0 -- -- 94
2020-10-14 02:00:00 9 2 Este 8 Norte 0 -- -- 93
2020-10-14 01:00:00 8.7 2 Noroeste 5 Norte 0 -- -- 92
2020-10-14 00:00:00 9.4 2 Norte 7 Norte 0 -- -- 89
2020-10-13 23:00:00 9.9 0 Calma 6 Noroeste 0 -- -- 88
2020-10-13 22:00:00 10.6 3 Norte 15 Este 0 -- -- 85
2020-10-13 21:00:00 11.1 6 Norte 18 Norte 0 -- -- 86
2020-10-13 20:00:00 11.8 3 Norte 12 Este 0 -- -- 84
2020-10-13 19:00:00 12.1 4 Norte 20 Norte 0 -- -- 83
2020-10-13 18:00:00 13.1 9 Norte 27 Noroeste 0 -- -- 81
2020-10-13 17:00:00 13.6 6 Norte 19 Norte 0 -- -- 77
2020-10-13 16:00:00 13.9 8 Norte 19 Noroeste 0 -- -- 74
2020-10-13 15:00:00 14.9 10 Noroeste 23 Norte 0 -- -- 71
2020-10-13 14:00:00 14.5 8 Norte 15 Noroeste 0 -- -- 75
2020-10-13 13:00:00 14.4 6 Nordeste 21 Nordeste 0 -- -- 79
2020-10-13 12:00:00 14.1 9 Norte 17 Norte 0 -- -- 89
2020-10-13 11:00:00 13 5 Nordeste 17 Nordeste 0 -- -- 96
2020-10-13 10:00:00 13.2 5 Norte 15 Norte 0 -- -- 98
2020-10-13 09:00:00 13.6 0 Calma 6 Sudoeste 0 -- -- 98
2020-10-13 08:00:00 13.7 0 Calma 2 Oeste 0 -- -- 98
2020-10-13 07:00:00 13.6 0 Calma 2 Sudeste 0.4 -- -- 98
2020-10-13 06:00:00 13.6 0 Calma 3 Sur 0.2 -- -- 98
2020-10-13 05:00:00 13.5 0 Calma 5 Sudoeste 0.6 -- -- 98
2020-10-13 04:00:00 13.4 0 Calma 3 Sur 0.2 -- -- 97
2020-10-13 03:00:00 13.3 0 Calma 5 Sur 0 -- -- 97
2020-10-13 02:00:00 13.9 3 Sudeste 6 Sur 0 -- -- 96
2020-10-13 01:00:00 -- -- -- -- -- -- -- -- --
2020-10-13 00:00:00 14.3 2 Sudeste 4 Sudeste 0 -- -- 94
2020-10-12 23:00:00 14.9 0 Calma 4 Noroeste 0 -- -- 92
2020-10-12 22:00:00 15.1 3 Norte 13 Norte 0 -- -- 91
2020-10-12 21:00:00 15.4 4 Noroeste 10 Norte 0 -- -- 90
2020-10-12 20:00:00 15.7 0 Calma 10 Nordeste 0 -- -- 88
2020-10-12 19:00:00 16 7 Norte 15 Noroeste 0 -- -- 87
2020-10-12 18:00:00 16 5 Norte 15 Norte 0 -- -- 86
2020-10-12 17:00:00 16.2 6 Norte 14 Nordeste 0 -- -- 87
2020-10-12 16:00:00 16.9 4 Nordeste 21 Noroeste 0 -- -- 79
2020-10-12 15:00:00 17.3 12 Noroeste 22 Este 0 -- -- 76
2020-10-12 14:00:00 17 5 Nordeste 18 Este 0 -- -- 73
2020-10-12 13:00:00 16.3 6 Nordeste 23 Este 0 -- -- 72
2020-10-12 12:00:00 15.4 10 Este 37 Este 0 -- -- 72
2020-10-12 11:00:00 14.9 5 Nordeste 27 Este 0 -- -- 72
2020-10-12 10:00:00 12.7 5 Este 26 Nordeste 0 -- -- 71
2020-10-12 09:00:00 11.4 12 Nordeste 27 Este 0 -- -- 70
2020-10-12 08:00:00 10.7 12 Este 33 Nordeste 0 -- -- 71
2020-10-12 07:00:00 10.5 9 Nordeste 42 Este 0 -- -- 75
2020-10-12 06:00:00 10.3 15 Este 37 Norte 0 -- -- 78
2020-10-12 05:00:00 10 10 Nordeste 33 Nordeste 0 -- -- 80
2020-10-12 04:00:00 -- -- -- -- -- -- -- -- --
2020-10-12 03:00:00 10 11 Norte 33 Nordeste 0 -- -- 76
2020-10-12 02:00:00 10.1 10 Nordeste 29 Norte 0 -- -- 77
2020-10-12 01:00:00 10.2 9 Norte 31 Nordeste 0 -- -- 78
2020-10-12 00:00:00 10.4 11 Nordeste 30 Nordeste 0 -- -- 75
2020-10-11 23:00:00 10.6 7 Norte 24 Noroeste 0 -- -- 73
2020-10-11 22:00:00 10.9 6 Noroeste 19 Nordeste 0 -- -- 71
2020-10-11 21:00:00 -- -- -- -- -- -- -- -- --
2020-10-11 20:00:00 -- -- -- -- -- -- -- -- --
2020-10-11 19:00:00 14.5 8 Nordeste 36 Este 0 -- -- 59
2020-10-11 18:00:00 15.9 11 Nordeste 26 Este 0 -- -- 54
2020-10-11 17:00:00 16.5 10 Nordeste 36 Este 0 -- -- 54
2020-10-11 16:00:00 17.1 9 Este 33 Este 0 -- -- 54
2020-10-11 15:00:00 16.2 15 Este 33 Este 0 -- -- 54
2020-10-11 14:00:00 15.5 14 Este 34 Este 0 -- -- 57
2020-10-11 13:00:00 14.4 14 Este 31 Este 0 -- -- 62
2020-10-11 12:00:00 13.3 9 Nordeste 36 Nordeste 0 -- -- 66
2020-10-11 11:00:00 12.4 9 Nordeste 35 Este 0 -- -- 69
2020-10-11 10:00:00 11.2 8 Norte 27 Norte 0 -- -- 71
2020-10-11 09:00:00 10.5 11 Norte 37 Nordeste 0 -- -- 72
2020-10-11 08:00:00 10.3 11 Nordeste 29 Este 0 -- -- 77
2020-10-11 07:00:00 10.2 12 Nordeste 36 Este 0 -- -- 75
2020-10-11 06:00:00 10.1 13 Nordeste 31 Este 0 -- -- 76
2020-10-11 05:00:00 10.7 12 Nordeste 46 Este 0 -- -- 71
2020-10-11 04:00:00 10.8 8 Nordeste 24 Este 0 -- -- 72
2020-10-11 03:00:00 10.6 5 Norte 38 Nordeste 0 -- -- 80
2020-10-11 02:00:00 10.9 5 Norte 19 Nordeste 0 -- -- 78
2020-10-11 01:00:00 11.5 8 Este 28 Este 0 -- -- 76
2020-10-11 00:00:00 11.7 11 Nordeste 25 Este 0 -- -- 77
2020-10-10 23:00:00 11.7 11 Este 30 Nordeste 0 -- -- 79
2020-10-10 22:00:00 12.3 10 Este 33 Este 0 -- -- 73
2020-10-10 21:00:00 13.2 9 Este 30 Este 0 -- -- 69
2020-10-10 20:00:00 14.3 12 Este 31 Nordeste 0 -- -- 66
2020-10-10 19:00:00 16.1 9 Nordeste 28 Nordeste 0 -- -- 60
2020-10-10 18:00:00 17.6 9 Nordeste 30 Nordeste 0 -- -- 56
2020-10-10 17:00:00 18.2 10 Este 39 Este 0 -- -- 58
2020-10-10 16:00:00 17.5 19 Este 40 Este 0 -- -- 61
2020-10-10 15:00:00 17.9 12 Este 45 Este 0 -- -- 62
2020-10-10 14:00:00 17.1 18 Este 39 Este 0 -- -- 64
2020-10-10 13:00:00 15.7 18 Este 39 Nordeste 0 -- -- 70
2020-10-10 12:00:00 15 15 Nordeste 33 Este 0 -- -- 74
2020-10-10 11:00:00 14.4 18 Este 42 Este 0 -- -- 78
2020-10-10 10:00:00 13.9 10 Norte 27 Noroeste 0 -- -- 81
2020-10-10 09:00:00 13 6 Norte 28 Norte 0 -- -- 84
2020-10-10 08:00:00 13.3 9 Nordeste 39 Este 0 -- -- 83
2020-10-10 07:00:00 13.6 13 Nordeste 49 Este 0 -- -- 83
2020-10-10 06:00:00 14.3 7 Nordeste 25 Este 0 -- -- 82
2020-10-10 05:00:00 14.8 6 Norte 23 Noroeste 0 -- -- 83
2020-10-10 04:00:00 14.8 9 Norte 28 Noroeste 0 -- -- 84
2020-10-10 03:00:00 14 5 Nordeste 23 Este 0 -- -- 86
2020-10-10 02:00:00 14 9 Norte 21 Nordeste 0 -- -- 86
2020-10-10 01:00:00 14.5 11 Este 22 Este 0 -- -- 85
2020-10-10 00:00:00 15 8 Este 18 Nordeste 0 -- -- 86
2020-10-09 23:00:00 15.2 5 Nordeste 17 Este 0 -- -- 87
2020-10-09 22:00:00 14.9 9 Este 19 Este 0 -- -- 87
2020-10-09 21:00:00 15.6 4 Norte 9 Nordeste 0 -- -- 82
2020-10-09 20:00:00 16.7 0 Calma 20 Noroeste 0 -- -- 80
2020-10-09 19:00:00 18.6 10 Noroeste 22 Noroeste 0 -- -- 72
2020-10-09 18:00:00 19.7 12 Noroeste 23 Noroeste 0 -- -- 74
2020-10-09 17:00:00 20.6 9 Noroeste 19 Noroeste 0 -- -- 66
2020-10-09 16:00:00 21.3 8 Oeste 18 Oeste 0 -- -- 63
2020-10-09 15:00:00 20.5 4 Norte 14 Noroeste 0 -- -- 63
2020-10-09 14:00:00 18.7 6 Noroeste 15 Norte 0 -- -- 68
2020-10-09 13:00:00 17.4 10 Noroeste 18 Noroeste 0 -- -- 73
2020-10-09 12:00:00 16.7 6 Norte 15 Noroeste 0 -- -- 82
2020-10-09 11:00:00 13.9 0 Calma 6 Noroeste 0 -- -- 97
2020-10-09 10:00:00 9.9 3 Noroeste 10 Nordeste 0 -- -- 99
2020-10-09 09:00:00 8.4 4 Norte 9 Nordeste 0 -- -- 99
2020-10-09 08:00:00 8.2 2 Noroeste 10 Nordeste 0 -- -- 97
2020-10-09 07:00:00 8.1 3 Norte 7 Noroeste 0 -- -- 97
2020-10-09 06:00:00 8.2 3 Noroeste 9 Nordeste 0 -- -- 97
2020-10-09 05:00:00 8.6 4 Nordeste 10 Norte 0 -- -- 97
2020-10-09 04:00:00 8.7 3 Noroeste 9 Nordeste 0 -- -- 96
2020-10-09 03:00:00 9.8 4 Norte 10 Norte 0 -- -- 96
2020-10-09 02:00:00 10 3 Norte 9 Nordeste 0 -- -- 96
2020-10-09 01:00:00 10.9 5 Nordeste 8 Nordeste 0 -- -- 97
2020-10-09 00:00:00 11.3 0 Calma 5 Noroeste 0 -- -- 95
2020-10-08 23:00:00 12.3 2 Noroeste 6 Norte 0 -- -- 94
2020-10-08 22:00:00 14.1 0 Calma 5 Nordeste 0 -- -- 92
2020-10-08 21:00:00 15.4 0 Calma 7 Oeste 0 -- -- 90
2020-10-08 20:00:00 16.9 4 Sudoeste 9 Noroeste 0 -- -- 85
2020-10-08 19:00:00 17.7 4 Noroeste 18 Noroeste 0 -- -- 82
2020-10-08 18:00:00 20.5 12 Noroeste 18 Noroeste 0 -- -- 72
2020-10-08 17:00:00 21.5 9 Noroeste 17 Oeste 0 -- -- 70
2020-10-08 16:00:00 22 8 Sudoeste 14 Oeste 0 -- -- 66
2020-10-08 15:00:00 21.2 7 Oeste 14 Sudoeste 0 -- -- 71
2020-10-08 14:00:00 20.3 5 Sudoeste 12 Sudoeste 0 -- -- 73
2020-10-08 13:00:00 17.7 0 Calma 6 Sudoeste 0 -- -- 82
2020-10-08 12:00:00 15.4 4 Sudeste 5 Sudeste 0 -- -- 94
2020-10-08 11:00:00 13.8 3 Noroeste 13 Nordeste 0 -- -- 97
2020-10-08 10:00:00 12.2 5 Norte 12 Nordeste 0 -- -- 97
2020-10-08 09:00:00 11.6 3 Norte 11 Norte 0 -- -- 97
2020-10-08 08:00:00 11 7 Norte 14 Norte 0 -- -- 98
2020-10-08 07:00:00 10.5 5 Norte 15 Nordeste 0 -- -- 95
2020-10-08 06:00:00 10.9 5 Norte 14 Nordeste 0 -- -- 96
2020-10-08 05:00:00 12.3 8 Nordeste 18 Nordeste 0 -- -- 95
2020-10-08 04:00:00 12.4 5 Nordeste 14 Norte 0 -- -- 96
2020-10-08 03:00:00 12.3 7 Norte 13 Este 0 -- -- 95
2020-10-08 02:00:00 13.5 5 Norte 22 Este 0 -- -- 91
2020-10-08 01:00:00 13.5 7 Nordeste 18 Este 0 -- -- 97
2020-10-08 00:00:00 13 7 Norte 13 Norte 0 -- -- 95
2020-10-07 23:00:00 13.5 8 Norte 12 Nordeste 0 -- -- 95
2020-10-07 22:00:00 14.2 6 Nordeste 12 Este 0 -- -- 94
2020-10-07 21:00:00 15.6 0 Calma 7 Noroeste 0 -- -- 92
2020-10-07 20:00:00 17.2 2 Nordeste 14 Oeste 0 -- -- 89
2020-10-07 19:00:00 19.4 8 Noroeste 18 Noroeste 0 -- -- 82
2020-10-07 18:00:00 20.8 11 Noroeste 20 Oeste 0 -- -- 76
2020-10-07 17:00:00 20.5 14 Noroeste 23 Oeste 0 -- -- 76
2020-10-07 16:00:00 20.1 9 Noroeste 18 Noroeste 0 -- -- 77
2020-10-07 15:00:00 20.8 4 Oeste 12 Noroeste 0 -- -- 75
2020-10-07 14:00:00 19.6 4 Norte 16 Noroeste 0 -- -- 77
2020-10-07 13:00:00 18.8 4 Norte 14 Noroeste 0 -- -- 84
2020-10-07 12:00:00 17.7 11 Noroeste 16 Noroeste 0 -- -- 95
2020-10-07 11:00:00 16.2 5 Norte 8 Noroeste 0 -- -- 100
2020-10-07 10:00:00 15.2 2 Norte 5 Noroeste 0 -- -- 99
2020-10-07 09:00:00 14.6 0 Calma 2 Este 0 -- -- 99
2020-10-07 08:00:00 14.6 0 Calma 4 Noroeste 0.2 -- -- 99
2020-10-07 07:00:00 14.6 2 Este 4 Norte 0.8 -- -- 99
2020-10-07 06:00:00 14.7 0 Calma 3 Noroeste 0.4 -- -- 99
2020-10-07 05:00:00 14.6 0 Calma 3 Norte 1.4 -- -- 99
2020-10-07 04:00:00 14.7 0 Calma 3 Sudoeste 1.2 -- -- 99
2020-10-07 03:00:00 14.7 0 Calma 3 Sur 0.6 -- -- 99
2020-10-07 02:00:00 14.6 0 Calma 6 Sur 0.4 -- -- 98
2020-10-07 01:00:00 14.7 0 Calma 5 Sudoeste 0.4 -- -- 98
2020-10-07 00:00:00 14.8 0 Calma 5 Sudoeste 0.4 -- -- 98
2020-10-06 23:00:00 15 2 Sur 5 Sudoeste 0.2 -- -- 97
2020-10-06 22:00:00 15.1 3 Oeste 5 Sur 0 -- -- 97
2020-10-06 21:00:00 15.3 2 Sudeste 5 Sur 0 -- -- 96
2020-10-06 20:00:00 15.7 2 Sudoeste 9 Oeste 0 -- -- 94
2020-10-06 19:00:00 16 5 Noroeste 17 Oeste 0 -- -- 93
2020-10-06 18:00:00 16.4 6 Oeste 22 Oeste 0 -- -- 96
2020-10-06 17:00:00 16.3 11 Noroeste 21 Oeste 0 -- -- 98
2020-10-06 16:00:00 16.2 12 Oeste 21 Sudoeste 0.2 -- -- 99
2020-10-06 15:00:00 16 9 Sudoeste 21 Sudoeste 0.6 -- -- 100
2020-10-06 14:00:00 16 6 Sudoeste 21 Noroeste 1.8 -- -- 100
2020-10-06 13:00:00 15.5 9 Sudoeste 26 Sudoeste 0.4 -- -- 100
2020-10-06 12:00:00 15.4 11 Sudoeste 26 Sudoeste 0.4 -- -- 100
2020-10-06 11:00:00 15.5 8 Sudoeste 18 Oeste 0.4 -- -- 100
2020-10-06 10:00:00 15.2 5 Sudoeste 12 Sudoeste 1.2 -- -- 100
2020-10-06 09:00:00 15 6 Sudoeste 17 Sudoeste 2 -- -- 100
2020-10-06 08:00:00 14.9 4 Sudoeste 14 Sur 1 -- -- 100
2020-10-06 07:00:00 14.8 4 Oeste 11 Sudoeste 1.2 -- -- 99
2020-10-06 06:00:00 14.7 5 Sudoeste 11 Sur 0.6 -- -- 99
2020-10-06 05:00:00 14.6 5 Sur 10 Sur 0.8 -- -- 99
2020-10-06 04:00:00 14.6 2 Oeste 7 Sudoeste 0.4 -- -- 99
2020-10-06 03:00:00 14.5 3 Sudoeste 6 Sudoeste 0.6 -- -- 99
2020-10-06 02:00:00 14.4 0 Calma 6 Sudoeste 0.6 -- -- 99
2020-10-06 01:00:00 14.4 3 Sudoeste 10 Sudoeste 1.4 -- -- 99
2020-10-06 00:00:00 14.4 6 Sudoeste 10 Sudoeste 0.2 -- -- 99
2020-10-05 23:00:00 14.2 5 Sudoeste 9 Sur 0.4 -- -- 99
2020-10-05 22:00:00 14.2 2 Noroeste 8 Sudoeste 0.4 -- -- 99
2020-10-05 21:00:00 14.1 3 Sudoeste 9 Sudoeste 1.2 -- -- 98
2020-10-05 20:00:00 14.2 3 Sudoeste 14 Sudoeste 1.6 -- -- 98
2020-10-05 19:00:00 14.2 5 Sur 14 Sur 0.8 -- -- 98
2020-10-05 18:00:00 14.2 10 Sudoeste 22 Sudoeste 0.6 -- -- 98
2020-10-05 17:00:00 14.1 9 Sudoeste 18 Sudoeste 0.4 -- -- 98
2020-10-05 16:00:00 14 8 Sudoeste 18 Sudoeste 0.2 -- -- 98
2020-10-05 15:00:00 13.5 5 Sudoeste 13 Sudoeste 0.4 -- -- 98
2020-10-05 14:00:00 13.4 5 Sudoeste 14 Sudoeste 0.4 -- -- 98
2020-10-05 13:00:00 12.9 6 Sur 17 Sudoeste 0.2 -- -- 98
2020-10-05 12:00:00 12.4 4 Sudoeste 10 Sur 0 -- -- 98
2020-10-05 11:00:00 11.9 3 Sur 7 Sur 0.4 -- -- 99
2020-10-05 10:00:00 11.4 3 Sur 6 Oeste 0 -- -- 98
2020-10-05 09:00:00 10.7 0 Calma 4 Noroeste 0.2 -- -- 98
2020-10-05 08:00:00 10.6 0 Calma 4 Sudeste 0 -- -- 98
2020-10-05 07:00:00 10.9 3 Sur 7 Noroeste 0 -- -- 97
2020-10-05 06:00:00 10.9 3 Noroeste 5 Noroeste 0 -- -- 97
2020-10-05 05:00:00 11 2 Sur 6 Noroeste 0 -- -- 96
2020-10-05 04:00:00 11.2 3 Sudoeste 5 Sudoeste 0 -- -- 96
2020-10-05 03:00:00 11.2 2 Sudoeste 6 Sudoeste 0 -- -- 96
2020-10-05 02:00:00 11.3 0 Calma 9 Sudoeste 0 -- -- 96
2020-10-05 01:00:00 11.6 5 Sudoeste 17 Sudoeste 0 -- -- 95
2020-10-05 00:00:00 11.4 5 Sudoeste 8 Sudoeste 0 -- -- 96
2020-10-04 23:00:00 11.1 2 Sudoeste 15 Sudoeste 0 -- -- 94
2020-10-04 22:00:00 11.7 6 Sudoeste 14 Sudoeste 0 -- -- 92
2020-10-04 21:00:00 12.1 5 Sudoeste 11 Sudoeste 0 -- -- 91
2020-10-04 20:00:00 12.4 5 Sudoeste 17 Noroeste 0 -- -- 88
2020-10-04 19:00:00 13.2 7 Oeste 31 Noroeste 0 -- -- 83
2020-10-04 18:00:00 13 9 Oeste 33 Oeste 0 -- -- 86
2020-10-04 17:00:00 14.4 12 Noroeste 38 Noroeste 0.4 -- -- 79
2020-10-04 16:00:00 14.6 19 Noroeste 37 Oeste 0 -- -- 75
2020-10-04 15:00:00 13.3 11 Noroeste 44 Oeste 0.4 -- -- 88
2020-10-04 14:00:00 14.2 16 Noroeste 31 Oeste 0 -- -- 86
2020-10-04 13:00:00 12 19 Noroeste 44 Noroeste 0.8 -- -- 91
2020-10-04 12:00:00 13.2 13 Oeste 26 Noroeste 0 -- -- 89
2020-10-04 11:00:00 11.3 8 Noroeste 20 Oeste 0.6 -- -- 92
2020-10-04 10:00:00 11.9 5 Oeste 21 Oeste 0 -- -- 86
2020-10-04 09:00:00 10.9 8 Noroeste 15 Oeste 0 -- -- 90
2020-10-04 08:00:00 11.2 6 Noroeste 32 Oeste 0 -- -- 93
2020-10-04 07:00:00 11.6 5 Sudoeste 13 Oeste 0 -- -- 96
2020-10-04 06:00:00 11.7 3 Sudoeste 15 Noroeste 0 -- -- 96
2020-10-04 05:00:00 12.1 6 Oeste 30 Oeste 0 -- -- 97
2020-10-04 04:00:00 11.9 11 Oeste 24 Oeste 1.4 -- -- 98
2020-10-04 03:00:00 11.5 6 Sudoeste 26 Sudoeste 1.8 -- -- 98
2020-10-04 02:00:00 11.4 6 Sudoeste 18 Sudoeste 1 -- -- 98
2020-10-04 01:00:00 11.1 5 Oeste 20 Sudoeste 1.2 -- -- 97
2020-10-04 00:00:00 11 5 Sur 13 Sur 0 -- -- 97
2020-10-03 23:00:00 11 3 Sudoeste 13 Sudoeste 0.2 -- -- 96
2020-10-03 22:00:00 11.1 4 Sudoeste 13 Sudoeste 0 -- -- 96
2020-10-03 21:00:00 11.2 5 Sudoeste 12 Sudoeste 0 -- -- 95
2020-10-03 20:00:00 11.4 4 Sudoeste 21 Noroeste 0.4 -- -- 95
2020-10-03 19:00:00 11.3 10 Noroeste 28 Oeste 2.8 -- -- 93
2020-10-03 18:00:00 13.2 9 Oeste 26 Oeste 0 -- -- 79
2020-10-03 17:00:00 14 13 Oeste 30 Oeste 0 -- -- 73
2020-10-03 16:00:00 13.3 12 Oeste 30 Sudoeste 0 -- -- 79
2020-10-03 15:00:00 13.6 13 Oeste 26 Noroeste 0.4 -- -- 79
2020-10-03 14:00:00 12.8 8 Sudoeste 18 Oeste 0 -- -- 84
2020-10-03 13:00:00 13 6 Oeste 19 Sudoeste 0 -- -- 87
2020-10-03 12:00:00 11.6 6 Sudoeste 14 Sudoeste 0 -- -- 96
2020-10-03 11:00:00 9.8 2 Sur 6 Sudoeste 0 -- -- 100
2020-10-03 10:00:00 7.6 0 Calma 4 Noroeste 0 -- -- 100
2020-10-03 09:00:00 6.9 3 Noroeste 8 Nordeste 0 -- -- 99
2020-10-03 08:00:00 6.2 2 Noroeste 5 Noroeste 0 -- -- 99
2020-10-03 07:00:00 5.6 2 Noroeste 4 Noroeste 0 -- -- 98
2020-10-03 06:00:00 6.1 0 Calma 5 Noroeste 0.2 -- -- 99
2020-10-03 05:00:00 6.6 2 Noroeste 4 Noroeste 0 -- -- 97
2020-10-03 04:00:00 7.6 0 Calma 4 Oeste 0 -- -- 97
2020-10-03 03:00:00 7.7 0 Calma 4 Norte 0 -- -- 98
2020-10-03 02:00:00 7.8 2 Este 6 Sudoeste 0.2 -- -- 97
2020-10-03 01:00:00 8.5 3 Sur 12 Nordeste 2.2 -- -- 97
2020-10-03 00:00:00 8.6 3 Este 6 Nordeste 0.2 -- -- 97
2020-10-02 23:00:00 8.8 0 Calma 5 Sudoeste 0 -- -- 96
2020-10-02 22:00:00 8.9 2 Sudeste 6 Noroeste 0.6 -- -- 94
2020-10-02 21:00:00 9.5 0 Calma 45 Noroeste 0.8 -- -- 92
2020-10-02 20:00:00 10.6 10 Noroeste 24 Oeste 0 -- -- 84
2020-10-02 19:00:00 10.7 6 Noroeste 28 Noroeste 0.2 -- -- 87
2020-10-02 18:00:00 11.3 12 Noroeste 32 Noroeste 0 -- -- 85
2020-10-02 17:00:00 10.3 12 Noroeste 44 Noroeste 3 -- -- 88
2020-10-02 16:00:00 12.6 18 Noroeste 39 Noroeste 0 -- -- 74
2020-10-02 15:00:00 11.5 17 Noroeste 37 Noroeste 0 -- -- 83
2020-10-02 14:00:00 9.6 15 Noroeste 32 Noroeste 1 -- -- 86
2020-10-02 13:00:00 10.4 15 Noroeste 31 Noroeste 0 -- -- 84
2020-10-02 12:00:00 10.5 15 Noroeste 29 Noroeste 0 -- -- 87
2020-10-02 11:00:00 9.4 5 Noroeste 21 Nordeste 0 -- -- 93
2020-10-02 10:00:00 8.5 10 Noroeste 25 Noroeste 2.4 -- -- 94
2020-10-02 09:00:00 9.5 6 Noroeste 44 Noroeste 0 -- -- 94
2020-10-02 08:00:00 10.4 20 Noroeste 40 Noroeste 1.2 -- -- 96
2020-10-02 07:00:00 10.9 15 Noroeste 56 Oeste 0.6 -- -- 96
2020-10-02 06:00:00 12 24 Noroeste 47 Oeste 1 -- -- 96
2020-10-02 05:00:00 13.7 26 Noroeste 59 Oeste 0.4 -- -- 96
2020-10-02 04:00:00 14.5 17 Oeste 55 Oeste 1.2 -- -- 98
2020-10-02 03:00:00 14.5 21 Oeste 61 Oeste 5.8 -- -- 98
2020-10-02 02:00:00 15 19 Oeste 45 Noroeste 6 -- -- 98
2020-10-02 01:00:00 15.1 24 Oeste 55 Oeste 6.4 -- -- 98
2020-10-02 00:00:00 14.9 21 Oeste 41 Sudoeste 10.6 -- -- 98
2020-10-01 23:00:00 14.1 18 Sudoeste 43 Sudoeste 4.6 -- -- 97
2020-10-01 22:00:00 13 11 Sudoeste 32 Sudoeste 5.6 -- -- 97
2020-10-01 21:00:00 12.8 13 Sudoeste 35 Sudoeste 4.8 -- -- 95
2020-10-01 20:00:00 13 14 Sudoeste 37 Sudoeste 1.2 -- -- 93
2020-10-01 19:00:00 13.7 9 Sudoeste 29 Sudoeste 0 -- -- 88
2020-10-01 18:00:00 13.9 8 Sudoeste 32 Oeste 0 -- -- 86
2020-10-01 17:00:00 15.2 13 Sudoeste 29 Oeste 0 -- -- 80
2020-10-01 16:00:00 15.5 12 Sudoeste 26 Sudoeste 0 -- -- 79
2020-10-01 15:00:00 16.1 12 Sudoeste 28 Sudoeste 0 -- -- 70
2020-10-01 14:00:00 15.1 10 Oeste 22 Sudoeste 0 -- -- 77
2020-10-01 13:00:00 14.9 6 Sudoeste 17 Oeste 0 -- -- 80
2020-10-01 12:00:00 13.9 4 Sudoeste 12 Sudoeste 0 -- -- 91
2020-10-01 11:00:00 12.8 4 Sudoeste 6 Sudoeste 0 -- -- 97
2020-10-01 10:00:00 11.7 0 Calma 4 Noroeste 0 -- -- 96
2020-10-01 09:00:00 11.6 0 Calma 18 Sudoeste 0.4 -- -- 96
2020-10-01 08:00:00 12 0 Calma 9 Oeste 0 -- -- 95
2020-10-01 07:00:00 12.5 4 Oeste 26 Sudoeste 0.8 -- -- 94
2020-10-01 06:00:00 13 7 Noroeste 28 Noroeste 0 -- -- 94
2020-10-01 05:00:00 13.6 12 Noroeste 22 Noroeste 0 -- -- 95
2020-10-01 04:00:00 13.6 5 Oeste 18 Oeste 0.2 -- -- 97
2020-10-01 03:00:00 13.1 6 Sudoeste 10 Oeste 1.8 -- -- 97
2020-10-01 02:00:00 12.6 4 Sudoeste 13 Sudoeste 2.6 -- -- 96
2020-10-01 01:00:00 12.5 5 Sudoeste 16 Sur 2 -- -- 95
2020-10-01 00:00:00 12.7 2 Oeste 9 Sudoeste 1.4 -- -- 93